Time;durP1;ratioP1;P1;durP2;ratioP2;P2;SDS_P1;SDS_P2;PMS_P1;PMS_P2;Temp;Humidity;BMP_temperature;BMP_pressure;BME280_temperature;BME280_humidity;BME280_pressure;Samples;Min_cycle;Max_cycle;Signal;HPM_P1;HPM_P2
2021/12/27 00:00:47;;;;;;;14.50;8.88;;;;;;;;;;5059376;28;20032;-76
2021/12/27 00:03:13;;;;;;;13.18;8.90;;;;;;;;;;5059388;28;20044;-74
2021/12/27 00:05:39;;;;;;;14.93;8.00;;;;;;;;;;5054298;28;20040;-74
2021/12/27 00:08:06;;;;;;;17.08;8.05;;;;;;;;;;5039082;28;20127;-74
2021/12/27 00:10:32;;;;;;;16.85;8.27;;;;;;;;;;5037654;28;20048;-74
2021/12/27 00:12:58;;;;;;;13.18;7.40;;;-0.30;99.90;;;;;;5055998;28;20040;-74
2021/12/27 00:15:26;;;;;;;17.83;9.52;;;;;;;;;;5059285;28;20061;-74
2021/12/27 00:17:52;;;;;;;12.40;7.60;;;;;;;;;;5058556;28;20116;-74
2021/12/27 00:20:20;;;;;;;14.65;8.15;;;0.70;99.90;;;;;;5051059;28;20044;-74
2021/12/27 00:22:47;;;;;;;17.98;9.15;;;;;;;;;;5057814;28;20057;-74
2021/12/27 00:25:14;;;;;;;16.25;8.13;;;-0.20;99.90;;;;;;5059003;28;20043;-74
2021/12/27 00:27:40;;;;;;;17.63;9.50;;;;;;;;;;5057711;28;20121;-74
2021/12/27 00:30:07;;;;;;;13.05;6.38;;;;;;;;;;5059324;28;20389;-74
2021/12/27 00:32:36;;;;;;;11.23;6.43;;;-0.40;99.90;;;;;;5054200;28;20044;-74
2021/12/27 00:35:05;;;;;;;10.70;5.68;;;-0.30;93.60;;;;;;5060300;28;20529;-74
2021/12/27 00:37:31;;;;;;;14.68;8.02;;;;;;;;;;5060169;28;20516;-75
2021/12/27 00:39:57;;;;;;;14.00;6.72;;;;;;;;;;5043783;28;20032;-74
2021/12/27 00:42:23;;;;;;;12.40;7.60;;;;;;;;;;5061565;28;20089;-74
2021/12/27 00:44:49;;;;;;;16.65;8.48;;;-0.50;99.90;;;;;;5059773;28;20071;-74
2021/12/27 00:47:15;;;;;;;14.40;7.38;;;;;;;;;;5061388;28;20052;-74
2021/12/27 00:49:41;;;;;;;19.65;9.43;;;-0.20;99.90;;;;;;5061137;28;20139;-75
2021/12/27 00:52:08;;;;;;;17.58;8.30;;;;;;;;;;5056469;28;20091;-74
2021/12/27 00:54:35;;;;;;;14.98;7.85;;;;;;;;;;5062623;28;20388;-74
2021/12/27 00:57:01;;;;;;;14.05;8.02;;;;;;;;;;5063305;28;20106;-74
2021/12/27 00:59:27;;;;;;;19.67;9.90;;;-0.50;94.90;;;;;;5061938;28;20538;-74
2021/12/27 01:01:53;;;;;;;13.90;8.05;;;;;;;;;;5062885;28;20036;-75
2021/12/27 01:04:19;;;;;;;15.82;8.15;;;-0.40;99.90;;;;;;5061589;28;20036;-74
2021/12/27 01:06:45;;;;;;;18.70;8.45;;;-0.20;99.90;;;;;;5061720;28;20040;-74
2021/12/27 01:09:26;;;;;;;15.48;8.80;;;;;;;;;;5046981;28;20051;-74
2021/12/27 01:12:49;;;;;;;17.05;9.82;;;-0.30;99.90;;;;;;5057326;28;20044;-74
2021/12/27 01:14:43;;;;;;;19.38;9.85;;;;;;;;;;5040967;28;20500;-74
2021/12/27 01:17:09;;;;;;;17.77;8.95;;;;;;;;;;5062320;28;20114;-73
2021/12/27 01:19:35;;;;;;;12.60;7.07;;;;;;;;;;5035687;28;20044;-74
2021/12/27 01:22:02;;;;;;;16.50;8.30;;;;;;;;;;5040812;28;20483;-73
2021/12/27 01:24:28;;;;;;;19.73;10.23;;;-0.20;93.90;;;;;;5040710;28;20064;-74
2021/12/27 01:26:54;;;;;;;17.77;8.55;;;;;;;;;;5055125;28;20134;-73
2021/12/27 01:29:21;;;;;;;19.65;10.13;;;;;;;;;;5052537;28;20048;-74
2021/12/27 01:31:47;;;;;;;17.02;9.15;;;;;;;;;;5058810;28;20078;-74
2021/12/27 01:34:13;;;;;;;19.27;11.27;;;;;;;;;;5059581;28;20051;-74
2021/12/27 01:36:39;;;;;;;23.35;10.90;;;;;;;;;;5057905;28;20073;-74
2021/12/27 01:39:06;;;;;;;19.35;10.75;;;;;;;;;;5063231;28;20719;-74
2021/12/27 01:41:32;;;;;;;13.52;8.25;;;;;;;;;;5058809;28;20041;-74
2021/12/27 01:43:58;;;;;;;19.50;10.05;;;;;;;;;;5061319;28;20714;-74
2021/12/27 01:46:28;;;;;;;15.45;8.60;;;;;;;;;;5061207;28;20036;-74
2021/12/27 01:48:56;;;;;;;19.83;9.98;;;-0.20;99.90;;;;;;5045477;28;20044;-74
2021/12/27 01:51:24;;;;;;;16.48;9.07;;;;;;;;;;5039893;28;20083;-74
2021/12/27 01:53:50;;;;;;;24.13;10.82;;;;;;;;;;5056635;28;20052;-74
2021/12/27 01:56:20;;;;;;;21.40;10.95;;;;;;;;;;5045208;28;20083;-74
2021/12/27 01:58:47;;;;;;;19.42;9.15;;;;;;;;;;5055131;28;20079;-74
2021/12/27 02:01:13;;;;;;;20.77;10.45;;;;;;;;;;5044375;28;20037;-74
2021/12/27 02:03:43;;;;;;;14.98;8.35;;;;;;;;;;5057260;28;20040;-74
2021/12/27 02:06:11;;;;;;;18.60;9.35;;;-0.10;94.60;;;;;;5036648;28;20041;-74
2021/12/27 02:08:39;;;;;;;17.88;9.10;;;;;;;;;;5052186;28;20043;-74
2021/12/27 02:11:06;;;;;;;16.08;9.00;;;0.90;99.90;;;;;;5056713;28;20140;-74
2021/12/27 02:13:33;;;;;;;15.93;9.75;;;-0.10;94.90;;;;;;5049770;28;20128;-74
2021/12/27 02:15:59;;;;;;;17.27;9.98;;;;;;;;;;5049714;28;20059;-74
2021/12/27 02:18:25;;;;;;;12.82;7.90;;;;;;;;;;5050098;28;20102;-74
2021/12/27 02:20:52;;;;;;;15.52;8.80;;;;;;;;;;5054643;28;20068;-74
2021/12/27 02:23:19;;;;;;;16.33;9.88;;;;;;;;;;5051317;28;20048;-74
2021/12/27 02:25:50;;;;;;;19.98;11.30;;;;;;;;;;5050715;28;20092;-76
2021/12/27 02:28:17;;;;;;;18.42;9.35;;;;;;;;;;5060053;28;20044;-74
2021/12/27 02:30:44;;;;;;;19.42;9.50;;;;;;;;;;5061297;28;20051;-74
2021/12/27 02:33:10;;;;;;;18.08;9.18;;;;;;;;;;5044984;28;20431;-74
2021/12/27 02:35:41;;;;;;;18.58;9.63;;;-0.20;95.40;;;;;;5047585;28;20043;-74
2021/12/27 02:38:14;;;;;;;18.25;11.00;;;-0.20;95.00;;;;;;5054453;28;20041;-74
2021/12/27 02:40:42;;;;;;;17.70;9.30;;;-0.20;95.00;;;;;;5054176;28;20055;-74
2021/12/27 02:43:13;;;;;;;16.85;8.98;;;-0.30;95.10;;;;;;5056462;28;20033;-74
2021/12/27 02:45:52;;;;;;;16.17;9.25;;;-0.40;95.20;;;;;;5052175;28;20392;-74
2021/12/27 02:48:20;;;;;;;18.50;10.43;;;;;;;;;;5055171;28;20567;-74
2021/12/27 02:50:47;;;;;;;17.92;9.68;;;0.50;99.90;;;;;;5057460;28;20083;-74
2021/12/27 02:53:14;;;;;;;17.67;10.13;;;-0.40;95.60;;;;;;5057182;28;20098;-74
2021/12/27 02:55:40;;;;;;;19.67;11.02;;;;;;;;;;5055748;28;20052;-74
2021/12/27 02:58:07;;;;;;;18.52;10.10;;;;;;;;;;5043061;28;20169;-74
2021/12/27 03:00:39;;;;;;;17.23;10.30;;;;;;;;;;5053976;28;20036;-74
2021/12/27 03:03:06;;;;;;;15.15;9.07;;;;;;;;;;5061367;28;20031;-74
2021/12/27 03:05:32;;;;;;;19.05;9.57;;;;;;;;;;5059764;28;20082;-74
2021/12/27 03:07:59;;;;;;;19.92;10.30;;;;;;;;;;5043786;28;20067;-74
2021/12/27 03:10:28;;;;;;;18.65;9.88;;;-0.10;95.50;;;;;;5041810;28;20040;-74
2021/12/27 03:12:55;;;;;;;18.08;9.20;;;;;;;;;;5059003;28;20040;-74
2021/12/27 03:15:23;;;;;;;16.05;8.75;;;-0.20;95.40;;;;;;5058682;28;20060;-74
2021/12/27 03:17:50;;;;;;;21.30;11.18;;;;;;;;;;5055752;28;20044;-74
2021/12/27 03:20:19;;;;;;;16.75;9.68;;;-0.30;95.30;;;;;;5050503;28;20412;-74
2021/12/27 03:22:46;;;;;;;18.77;10.38;;;;;;;;;;5049116;28;20149;-74
2021/12/27 03:25:15;;;;;;;20.02;11.35;;;-0.10;95.40;;;;;;5037342;28;20048;-74
2021/12/27 03:27:42;;;;;;;20.67;10.18;;;;;;;;;;5052165;28;20072;-74
2021/12/27 03:30:11;;;;;;;20.25;10.82;;;-0.10;95.40;;;;;;5040937;28;20075;-74
2021/12/27 03:32:38;;;;;;;13.45;7.40;;;;;;;;;;5052381;28;20227;-74
2021/12/27 03:35:10;;;;;;;18.85;9.43;;;-0.20;95.60;;;;;;5054541;28;20045;-74
2021/12/27 03:37:39;;;;;;;15.40;8.98;;;-0.10;95.70;;;;;;5056066;28;20036;-74
2021/12/27 03:40:06;;;;;;;15.82;9.45;;;;;;;;;;5054619;28;20068;-74
2021/12/27 03:42:33;;;;;;;17.98;9.82;;;;;;;;;;5057507;28;20047;-74
2021/12/27 03:44:59;;;;;;;19.65;11.13;;;-0.20;99.90;;;;;;5055115;28;20084;-74
2021/12/27 03:47:25;;;;;;;15.85;8.40;;;;;;;;;;5058935;28;20045;-73
2021/12/27 03:49:52;;;;;;;15.73;9.40;;;0.00;99.90;;;;;;5041747;28;20048;-74
2021/12/27 03:52:18;;;;;;;15.88;9.23;;;;;;;;;;5053866;28;20040;-74
2021/12/27 03:54:44;;;;;;;19.30;9.70;;;;;;;;;;5036924;28;20865;-74
2021/12/27 03:57:11;;;;;;;13.95;7.43;;;;;;;;;;5058164;28;20048;-74
2021/12/27 03:59:51;;;;;;;14.88;8.52;;;0.80;99.90;;;;;;5049999;28;20526;-74
2021/12/27 04:02:17;;;;;;;15.30;9.20;;;;;;;;;;5056378;28;20048;-74
2021/12/27 04:04:44;;;;;;;22.77;10.25;;;;;;;;;;5044959;28;20090;-74
2021/12/27 04:07:10;;;;;;;21.10;11.25;;;;;;;;;;5060566;28;20085;-74
2021/12/27 04:09:37;;;;;;;13.95;9.32;;;0.00;96.40;;;;;;5052714;28;20257;-74
2021/12/27 04:12:03;;;;;;;16.05;10.35;;;;;;;;;;5053424;28;20116;-74
2021/12/27 04:14:30;;;;;;;19.92;11.23;;;;;;;;;;5055613;28;20434;-74
2021/12/27 04:16:56;;;;;;;16.33;9.60;;;;;;;;;;5062532;28;20071;-74
2021/12/27 04:19:22;;;;;;;17.63;11.18;;;;;;;;;;5062537;28;20048;-74
2021/12/27 04:21:48;;;;;;;20.25;11.98;;;0.10;99.90;;;;;;5063357;28;20040;-74
2021/12/27 04:24:14;;;;;;;19.50;10.57;;;;;;;;;;5040870;28;20063;-74
2021/12/27 04:26:40;;;;;;;17.85;8.80;;;;;;;;;;5057421;28;20037;-74
2021/12/27 04:29:06;;;;;;;19.50;10.05;;;-0.10;98.40;;;;;;5046765;28;20478;-74
2021/12/27 04:31:33;;;;;;;18.13;9.38;;;;;;;;;;5055375;28;20475;-73
2021/12/27 04:33:59;;;;;;;25.05;12.30;;;;;;;;;;5063235;28;20422;-74
2021/12/27 04:36:25;;;;;;;18.15;10.88;;;;;;;;;;5058068;28;20046;-73
2021/12/27 04:38:51;;;;;;;12.73;8.00;;;0.10;99.90;;;;;;5057869;28;20040;-73
2021/12/27 04:41:20;;;;;;;17.10;9.70;;;;;;;;;;5064715;28;20071;-73
2021/12/27 04:43:46;;;;;;;21.58;12.00;;;;;;;;;;5063018;28;20076;-74
2021/12/27 04:46:13;;;;;;;19.35;9.38;;;;;;;;;;5055193;28;20044;-73
2021/12/27 04:48:39;;;;;;;17.02;9.65;;;;;;;;;;5041574;28;20043;-73
2021/12/27 04:51:05;;;;;;;16.92;10.30;;;0.00;99.90;;;;;;5063534;28;20037;-73
2021/12/27 04:53:31;;;;;;;18.02;10.10;;;-0.30;99.90;;;;;;5063915;28;20533;-74
2021/12/27 04:55:57;;;;;;;17.90;10.40;;;;;;;;;;5058699;28;20040;-74
2021/12/27 04:58:23;;;;;;;19.40;10.30;;;-0.30;99.90;;;;;;5057679;28;20052;-73
2021/12/27 05:00:50;;;;;;;25.30;13.57;;;;;;;;;;5045195;28;20040;-73
2021/12/27 05:03:17;;;;;;;21.02;11.18;;;;;;;;;;5053043;28;20399;-73
2021/12/27 05:05:45;;;;;;;21.65;11.25;;;;;;;;;;5054490;28;20040;-73
2021/12/27 05:08:12;;;;;;;18.20;10.32;;;;;;;;;;5060431;28;20049;-73
2021/12/27 05:10:38;;;;;;;21.02;11.18;;;;;;;;;;5059609;28;20044;-73
2021/12/27 05:13:05;;;;;;;19.27;9.63;;;;;;;;;;5053025;28;20093;-73
2021/12/27 05:15:31;;;;;;;24.85;14.07;;;-0.20;99.90;;;;;;5061447;28;20315;-73
2021/12/27 05:17:57;;;;;;;20.25;11.63;;;;;;;;;;5045448;28;20040;-73
2021/12/27 05:20:23;;;;;;;22.75;13.95;;;;;;;;;;5061520;28;20419;-73
2021/12/27 05:22:50;;;;;;;17.27;9.48;;;;;;;;;;5061312;28;20093;-73
2021/12/27 05:25:16;;;;;;;15.85;10.25;;;;;;;;;;5046706;28;20032;-73
2021/12/27 05:27:45;;;;;;;17.52;9.40;;;0.00;99.90;;;;;;5051078;28;20071;-73
2021/12/27 05:30:12;;;;;;;27.42;14.80;;;;;;;;;;5050942;28;20051;-73
2021/12/27 05:32:40;;;;;;;19.25;11.30;;;;;;;;;;5052424;28;20379;-73
2021/12/27 05:35:08;;;;;;;23.98;13.68;;;0.10;99.90;;;;;;5042599;28;20413;-73
2021/12/27 05:37:34;;;;;;;25.80;14.23;;;;;;;;;;5055487;28;20041;-73
2021/12/27 05:40:04;;;;;;;16.83;9.68;;;;;;;;;;5052085;28;20048;-74
2021/12/27 05:42:40;;;;;;;25.33;12.30;;;;;;;;;;5040685;28;20482;-73
2021/12/27 05:45:07;;;;;;;21.27;12.68;;;;;;;;;;5059459;28;20043;-73
2021/12/27 05:47:33;;;;;;;23.00;13.02;;;;;;;;;;5054497;28;20504;-73
2021/12/27 05:49:59;;;;;;;20.25;11.98;;;0.40;99.90;;;;;;5060674;28;20442;-73
2021/12/27 05:52:26;;;;;;;23.75;13.73;;;;;;;;;;5054700;28;20082;-73
2021/12/27 05:54:52;;;;;;;21.33;13.27;;;;;;;;;;5061207;28;20047;-73
2021/12/27 05:57:19;;;;;;;22.75;11.65;;;;;;;;;;5061298;28;20052;-73
2021/12/27 05:59:45;;;;;;;24.85;13.68;;;0.30;99.90;;;;;;5058669;28;20029;-74
2021/12/27 06:02:12;;;;;;;21.48;12.38;;;;;;;;;;5038608;28;20040;-73
2021/12/27 06:04:38;;;;;;;17.80;10.20;;;;;;;;;;5060484;28;20032;-74
2021/12/27 06:07:04;;;;;;;26.33;15.25;;;;;;;;;;5058944;28;20040;-74
2021/12/27 06:09:30;;;;;;;23.35;13.10;;;;;;;;;;5060658;28;20052;-74
2021/12/27 06:11:56;;;;;;;24.13;13.30;;;;;;;;;;5055927;28;20041;-74
2021/12/27 06:14:23;;;;;;;19.80;11.60;;;;;;;;;;5057232;28;20445;-73
2021/12/27 06:16:49;;;;;;;21.70;11.45;;;;;;;;;;5050388;28;20053;-73
2021/12/27 06:19:17;;;;;;;21.40;11.90;;;;;;;;;;5060351;28;20044;-73
2021/12/27 06:21:43;;;;;;;28.23;16.05;;;;;;;;;;5040092;28;20036;-73
2021/12/27 06:24:09;;;;;;;24.17;12.80;;;;;;;;;;5053351;28;20048;-74
2021/12/27 06:26:35;;;;;;;21.25;10.40;;;;;;;;;;5052365;28;20124;-74
2021/12/27 06:29:01;;;;;;;27.85;13.82;;;;;;;;;;5037267;28;20045;-73
2021/12/27 06:31:28;;;;;;;22.90;11.85;;;;;;;;;;5049720;28;20036;-75
2021/12/27 06:33:54;;;;;;;22.40;10.75;;;;;;;;;;5059642;28;20044;-74
2021/12/27 06:36:20;;;;;;;24.75;11.45;;;;;;;;;;5060035;28;20158;-74
2021/12/27 06:38:46;;;;;;;25.33;12.63;;;;;;;;;;5054579;28;20048;-74
2021/12/27 06:41:12;;;;;;;29.33;11.95;;;;;;;;;;5057906;28;20051;-74
2021/12/27 06:43:39;;;;;;;29.08;11.20;;;;;;;;;;5038417;28;20036;-74
2021/12/27 06:46:05;;;;;;;17.45;10.30;;;;;;;;;;5045018;28;20479;-74
2021/12/27 06:48:31;;;;;;;24.05;11.52;;;;;;;;;;5037763;28;20377;-73
2021/12/27 06:50:57;;;;;;;24.25;13.23;;;;;;;;;;5052431;28;20041;-73
2021/12/27 06:53:23;;;;;;;31.73;15.73;;;0.30;99.90;;;;;;5060808;28;20045;-73
2021/12/27 06:55:50;;;;;;;30.50;14.75;;;;;;;;;;5057236;28;20367;-73
2021/12/27 06:58:16;;;;;;;29.00;13.77;;;;;;;;;;5059011;28;20040;-73
2021/12/27 07:00:43;;;;;;;38.53;15.07;;;;;;;;;;5058481;28;20628;-73
2021/12/27 07:03:11;;;;;;;23.35;11.68;;;;;;;;;;5032518;28;20422;-73
2021/12/27 07:05:37;;;;;;;34.22;16.30;;;;;;;;;;5041091;28;20500;-73
2021/12/27 07:08:03;;;;;;;32.00;15.38;;;0.40;99.90;;;;;;5050459;28;20080;-72
2021/12/27 07:10:31;;;;;;;30.00;14.55;;;;;;;;;;5053368;28;20044;-72
2021/12/27 07:12:59;;;;;;;29.75;15.38;;;;;;;;;;5037780;28;20036;-73
2021/12/27 07:15:25;;;;;;;30.00;14.55;;;;;;;;;;5046406;28;20524;-73
2021/12/27 07:17:52;;;;;;;26.88;12.90;;;;;;;;;;5053660;28;20460;-73
2021/12/27 07:20:18;;;;;;;28.90;14.55;;;0.40;99.90;;;;;;5059766;28;20426;-73
2021/12/27 07:22:44;;;;;;;26.70;12.80;;;;;;;;;;5042421;28;20575;-73
2021/12/27 07:25:10;;;;;;;29.42;13.00;;;;;;;;;;5038222;28;20505;-73
2021/12/27 07:27:37;;;;;;;21.38;11.65;;;;;;;;;;5059094;28;20113;-73
2021/12/27 07:30:05;;;;;;;33.80;16.85;;;;;;;;;;5054747;28;20036;-73
2021/12/27 07:32:31;;;;;;;33.97;15.77;;;;;;;;;;5059973;28;20044;-73
2021/12/27 07:34:57;;;;;;;34.30;14.68;;;;;;;;;;5058522;28;20040;-74
2021/12/27 07:37:23;;;;;;;33.08;15.43;;;;;;;;;;5054696;28;20491;-73
2021/12/27 07:39:49;;;;;;;24.25;14.60;;;;;;;;;;5046957;28;20036;-73
2021/12/27 07:42:15;;;;;;;27.58;12.65;;;;;;;;;;5039511;28;20157;-73
2021/12/27 07:44:42;;;;;;;31.67;16.77;;;;;;;;;;5060420;28;20538;-74
2021/12/27 07:47:08;;;;;;;36.60;15.77;;;;;;;;;;5062013;28;20083;-74
2021/12/27 07:49:34;;;;;;;32.45;14.55;;;;;;;;;;5062404;28;20047;-74
2021/12/27 07:52:00;;;;;;;29.55;13.60;;;;;;;;;;5053997;28;20106;-74
2021/12/27 07:54:26;;;;;;;31.48;14.75;;;0.70;99.90;;;;;;5053503;28;20040;-74
2021/12/27 07:56:52;;;;;;;32.78;16.77;;;;;;;;;;5060084;28;20095;-73
2021/12/27 07:59:18;;;;;;;33.63;15.48;;;;;;;;;;5061974;28;20044;-73
2021/12/27 08:01:44;;;;;;;32.80;14.52;;;0.40;99.90;;;;;;5046191;28;20127;-73
2021/12/27 08:04:10;;;;;;;29.42;14.75;;;;;;;;;;5057290;28;20471;-73
2021/12/27 08:06:37;;;;;;;25.05;13.45;;;;;;;;;;5057380;28;20514;-73
2021/12/27 08:09:04;;;;;;;29.52;13.75;;;;;;;;;;5063337;28;20040;-74
2021/12/27 08:11:30;;;;;;;35.17;15.63;;;;;;;;;;5059336;28;20128;-74
2021/12/27 08:13:56;;;;;;;40.50;16.00;;;;;;;;;;5055838;28;20144;-74
2021/12/27 08:16:24;;;;;;;31.50;15.38;;;;;;;;;;5062006;28;20048;-74
2021/12/27 08:18:51;;;;;;;35.75;15.98;;;;;;;;;;5058289;28;20114;-74
2021/12/27 08:21:17;;;;;;;33.22;15.13;;;;;;;;;;5055607;28;20041;-74
2021/12/27 08:23:43;;;;;;;35.70;16.95;;;;;;;;;;5059395;28;20064;-74
2021/12/27 08:26:09;;;;;;;32.83;16.35;;;0.40;99.90;;;;;;5055082;28;20052;-75
2021/12/27 08:28:35;;;;;;;35.45;13.63;;;;;;;;;;5042715;28;20046;-75
2021/12/27 08:31:01;;;;;;;24.40;11.80;;;;;;;;;;5056731;28;20491;-75
2021/12/27 08:33:27;;;;;;;34.50;15.32;;;;;;;;;;5053951;28;20094;-75
2021/12/27 08:35:54;;;;;;;31.48;14.23;;;;;;;;;;5054385;28;20043;-75
2021/12/27 08:38:20;;;;;;;38.03;16.65;;;;;;;;;;5035642;28;20045;-75
2021/12/27 08:40:46;;;;;;;34.42;15.20;;;;;;;;;;5040390;28;20262;-76
2021/12/27 08:43:12;;;;;;;37.33;16.50;;;;;;;;;;5051872;28;20074;-76
2021/12/27 08:45:38;;;;;;;33.80;13.48;;;;;;;;;;5046013;28;20036;-75
2021/12/27 08:48:05;;;;;;;32.50;16.27;;;;;;;;;;5057941;28;20472;-75
2021/12/27 08:50:31;;;;;;;37.55;13.65;;;;;;;;;;5045589;28;20539;-74
2021/12/27 08:52:57;;;;;;;28.63;11.70;;;;;;;;;;5045244;28;20071;-76
2021/12/27 08:55:23;;;;;;;29.02;12.82;;;;;;;;;;5053962;28;20091;-75
2021/12/27 08:57:50;;;;;;;21.20;10.20;;;;;;;;;;5045261;28;20123;-76
2021/12/27 09:00:17;;;;;;;26.25;9.68;;;;;;;;;;5060717;28;20622;-76
2021/12/27 09:02:44;;;;;;;33.33;13.88;;;;;;;;;;5061100;28;20541;-76
2021/12/27 09:05:10;;;;;;;36.90;16.17;;;;;;;;;;5058310;28;20461;-77
2021/12/27 09:07:36;;;;;;;31.35;14.07;;;;;;;;;;5035856;28;20055;-77
2021/12/27 09:10:03;;;;;;;39.05;14.90;;;;;;;;;;5058178;28;20363;-74
2021/12/27 09:12:29;;;;;;;33.97;13.40;;;0.70;99.90;;;;;;5060175;28;20040;-75
2021/12/27 09:14:56;;;;;;;25.83;11.80;;;;;;;;;;5051868;28;20052;-76
2021/12/27 09:17:22;;;;;;;37.35;10.88;;;;;;;;;;5042388;28;20053;-75
2021/12/27 09:19:48;;;;;;;19.25;9.68;;;;;;;;;;5060020;28;20449;-75
2021/12/27 09:22:15;;;;;;;49.35;17.17;;;;;;;;;;5043133;28;20047;-75
2021/12/27 09:24:42;;;;;;;26.85;11.27;;;1.00;99.90;;;;;;5048463;28;20096;-75
2021/12/27 09:27:08;;;;;;;26.60;10.23;;;;;;;;;;5052712;28;20032;-75
2021/12/27 09:29:34;;;;;;;26.42;12.15;;;;;;;;;;5053585;28;20039;-76
2021/12/27 09:32:00;;;;;;;20.75;9.30;;;;;;;;;;5060941;28;20036;-76
2021/12/27 09:34:27;;;;;;;22.85;9.18;;;;;;;;;;5058752;28;20403;-75
2021/12/27 09:36:53;;;;;;;24.88;11.30;;;;;;;;;;5054775;28;20048;-76
2021/12/27 09:39:19;;;;;;;33.50;11.35;;;1.00;99.90;;;;;;5041774;28;20549;-75
2021/12/27 09:41:46;;;;;;;36.05;15.15;;;;;;;;;;5051264;28;20045;-75
2021/12/27 09:44:12;;;;;;;27.58;11.68;;;;;;;;;;5033919;28;20036;-75
2021/12/27 09:46:38;;;;;;;36.45;11.70;;;;;;;;;;5057745;28;20051;-75
2021/12/27 09:49:07;;;;;;;33.45;11.93;;;;;;;;;;5049429;28;20045;-74
2021/12/27 09:51:34;;;;;;;29.98;9.57;;;;;;;;;;5053791;28;20560;-75
2021/12/27 09:54:01;;;;;;;26.25;10.85;;;;;;;;;;5048596;28;20163;-75
2021/12/27 09:56:27;;;;;;;33.50;13.48;;;;;;;;;;5058072;28;20041;-76
2021/12/27 09:58:54;;;;;;;28.80;11.43;;;;;;;;;;5049910;28;20036;-76
2021/12/27 10:01:20;;;;;;;23.63;9.70;;;;;;;;;;5058679;28;20342;-76
2021/12/27 10:03:48;;;;;;;19.10;8.13;;;;;;;;;;5057572;28;20029;-76
2021/12/27 10:06:15;;;;;;;28.88;12.93;;;;;;;;;;5045440;28;20040;-76
2021/12/27 10:08:44;;;;;;;24.90;10.13;;;;;;;;;;5039631;28;20502;-76
2021/12/27 10:11:21;;;;;;;33.83;12.20;;;;;;;;;;5055421;28;20067;-76
2021/12/27 10:14:04;;;;;;;18.58;9.52;;;1.50;99.90;;;;;;5057493;28;20637;-76
2021/12/27 10:16:31;;;;;;;28.48;12.10;;;;;;;;;;5039571;28;20079;-76
2021/12/27 10:18:58;;;;;;;29.40;10.88;;;;;;;;;;5055249;28;20380;-76
2021/12/27 10:21:25;;;;;;;37.38;12.68;;;;;;;;;;5051377;28;20280;-76
2021/12/27 10:24:01;;;;;;;26.02;11.57;;;;;;;;;;5029813;28;20049;-76
2021/12/27 10:26:30;;;;;;;35.85;10.15;;;1.60;99.90;;;;;;5052620;28;20553;-76
2021/12/27 10:29:06;;;;;;;30.80;13.02;;;;;;;;;;5038038;28;20515;-75
2021/12/27 10:31:49;;;;;;;30.98;12.95;;;;;;;;;;5048761;28;20051;-76
2021/12/27 10:34:15;;;;;;;27.23;12.75;;;;;;;;;;5048963;28;20071;-76
2021/12/27 10:37:17;;;;;;;33.28;15.80;;;;;;;;;;5054080;28;20040;-76
2021/12/27 10:39:46;;;;;;;31.30;16.98;;;1.70;99.90;;;;;;5019617;28;20045;-76
2021/12/27 10:42:17;;;;;;;23.80;11.15;;;;;;;;;;5029579;28;20044;-76
2021/12/27 10:44:43;;;;;;;25.92;11.02;;;;;;;;;;5057917;28;20051;-76
2021/12/27 10:47:33;;;;;;;40.80;15.23;;;1.80;99.90;;;;;;5041627;28;20047;-76
2021/12/27 10:50:05;;;;;;;49.80;16.05;;;;;;;;;;5037993;28;20041;-76
2021/12/27 10:52:46;;;;;;;29.33;13.43;;;;;;;;;;5056573;28;20220;-76
2021/12/27 10:55:13;;;;;;;27.30;14.05;;;;;;;;;;5052131;28;20465;-76
2021/12/27 10:57:39;;;;;;;28.48;10.25;;;;;;;;;;5034266;28;20080;-76
2021/12/27 11:00:24;;;;;;;23.63;12.80;;;;;;;;;;5058881;28;20033;-76
2021/12/27 11:02:51;;;;;;;39.58;11.00;;;;;;;;;;5040574;28;20054;-76
2021/12/27 11:05:19;;;;;;;50.75;15.63;;;;;;;;;;5048485;28;20037;-77
2021/12/27 11:07:46;;;;;;;41.67;13.43;;;;;;;;;;5048384;28;20045;-77
2021/12/27 11:10:12;;;;;;;31.40;12.55;;;2.00;99.90;;;;;;5044341;28;20044;-78
2021/12/27 11:12:38;;;;;;;33.58;10.60;;;;;;;;;;5040793;28;20037;-77
2021/12/27 11:15:09;;;;;;;27.33;11.45;;;1.90;99.90;;;;;;5057611;28;20052;-77
2021/12/27 11:17:36;;;;;;;23.15;10.82;;;;;;;;;;5060357;28;20045;-77
2021/12/27 11:20:03;;;;;;;33.53;13.48;;;;;;;;;;5040937;28;20575;-78
2021/12/27 11:22:29;;;;;;;25.73;11.55;;;;;;;;;;5053046;28;20155;-78
2021/12/27 11:24:55;;;;;;;38.83;13.05;;;;;;;;;;5055158;28;20102;-77
2021/12/27 11:27:22;;;;;;;26.13;12.55;;;;;;;;;;5053169;28;20664;-79
2021/12/27 11:30:09;;;;;;;23.95;10.90;;;2.10;99.90;;;;;;5029949;28;20555;-78
2021/12/27 11:32:36;;;;;;;29.95;11.15;;;;;;;;;;5051552;28;20044;-78
2021/12/27 11:35:09;;;;;;;24.85;12.02;;;;;;;;;;5041413;28;20059;-79
2021/12/27 11:37:37;;;;;;;22.30;10.32;;;;;;;;;;5053264;28;20037;-79
2021/12/27 11:40:05;;;;;;;30.83;12.45;;;;;;;;;;5054576;28;20569;-78
2021/12/27 11:42:51;;;;;;;25.88;10.85;;;;;;;;;;5050933;28;20396;-78
2021/12/27 11:45:36;;;;;;;33.17;11.73;;;;;;;;;;5057120;28;20510;-78
2021/12/27 11:48:07;;;;;;;26.70;10.98;;;;;;;;;;5039015;28;20102;-79
2021/12/27 11:50:33;;;;;;;28.70;10.40;;;;;;;;;;5036543;28;21279;-79
2021/12/27 11:53:06;;;;;;;26.95;9.40;;;;;;;;;;5038172;28;20124;-79
2021/12/27 11:55:39;;;;;;;34.75;12.75;;;2.40;99.90;;;;;;5053374;28;20051;-78
2021/12/27 11:58:06;;;;;;;49.88;12.05;;;;;;;;;;5052818;28;20543;-78
2021/12/27 12:00:32;;;;;;;56.28;16.75;;;;;;;;;;5054781;28;20527;-78
2021/12/27 12:03:01;;;;;;;41.70;13.05;;;2.30;99.90;;;;;;5040273;28;20127;-78
2021/12/27 12:05:39;;;;;;;35.53;12.48;;;;;;;;;;5054882;28;20033;-78
2021/12/27 12:08:06;;;;;;;28.23;12.55;;;;;;;;;;5035775;28;20063;-78
2021/12/27 12:10:33;;;;;;;29.55;13.07;;;;;;;;;;5057427;28;20936;-78
2021/12/27 12:13:18;;;;;;;28.10;11.93;;;;;;;;;;5057122;28;20075;-78
2021/12/27 12:16:04;;;;;;;40.80;12.13;;;2.50;99.90;;;;;;5056329;28;20048;-78
2021/12/27 12:18:31;;;;;;;18.80;10.57;;;;;;;;;;5046817;28;20049;-77
2021/12/27 12:20:59;;;;;;;27.13;12.98;;;;;;;;;;5055709;28;20047;-78
2021/12/27 12:23:25;;;;;;;28.10;11.95;;;;;;;;;;5050960;28;20156;-77
2021/12/27 12:26:01;;;;;;;31.77;11.57;;;;;;;;;;5048149;28;20448;-78
2021/12/27 12:28:28;;;;;;;30.33;11.20;;;2.70;99.90;;;;;;5056517;28;20040;-78
2021/12/27 12:30:55;;;;;;;32.20;11.88;;;;;;;;;;5043747;28;20554;-78
2021/12/27 12:33:23;;;;;;;41.13;15.13;;;;;;;;;;5057410;28;20044;-77
2021/12/27 12:35:57;;;;;;;29.17;10.93;;;2.70;99.90;;;;;;5047298;28;20406;-78
2021/12/27 12:38:34;;;;;;;37.22;12.35;;;;;;;;;;5058759;28;20052;-78
2021/12/27 12:41:00;;;;;;;32.90;11.73;;;;;;;;;;5061074;28;20124;-77
2021/12/27 12:43:35;;;;;;;41.67;12.52;;;;;;;;;;5042833;28;20040;-77
2021/12/27 12:46:23;;;;;;;32.85;10.48;;;2.80;99.90;;;;;;5059102;28;20039;-77
2021/12/27 12:49:09;;;;;;;62.25;13.98;;;;;;;;;;5052900;28;20053;-77
2021/12/27 12:51:43;;;;;;;32.33;10.93;;;2.80;99.90;;;;;;5055094;28;20044;-77
2021/12/27 12:54:24;;;;;;;39.80;10.27;;;;;;;;;;5061241;28;20052;-77
2021/12/27 12:56:56;;;;;;;34.55;8.88;;;;;;;;;;5040005;28;20083;-77
2021/12/27 12:59:23;;;;;;;29.85;11.23;;;;;;;;;;5062418;28;20596;-77
2021/12/27 13:02:07;;;;;;;27.83;11.60;;;3.10;99.90;;;;;;5059337;28;20037;-77
2021/12/27 13:04:39;;;;;;;28.75;14.18;;;;;;;;;;5038915;28;20053;-77
2021/12/27 13:07:06;;;;;;;40.85;11.02;;;;;;;;;;5059431;28;20040;-77
2021/12/27 13:09:42;;;;;;;26.98;10.35;;;;;;;;;;5059948;28;20044;-78
2021/12/27 13:12:09;;;;;;;24.95;11.27;;;4.90;99.90;;;;;;5057603;28;20049;-78
2021/12/27 13:14:35;;;;;;;29.02;11.88;;;;;;;;;;5038130;28;20412;-78
2021/12/27 13:17:19;;;;;;;44.22;12.43;;;;;;;;;;5046509;28;20454;-78
2021/12/27 13:20:06;;;;;;;48.05;11.82;;;2.70;99.90;;;;;;5043762;28;20466;-78
2021/12/27 13:22:46;;;;;;;69.07;12.05;;;;;;;;;;5051496;28;21866;-78
2021/12/27 13:25:13;;;;;;;69.93;11.27;;;;;;;;;;5044754;28;20040;-78
2021/12/27 13:27:40;;;;;;;58.03;11.73;;;;;;;;;;5045630;28;20044;-78
2021/12/27 13:30:13;;;;;;;117.50;14.40;;;;;;;;;;5035768;28;20474;-78
2021/12/27 13:32:41;;;;;;;66.22;10.05;;;;;;;;;;5046593;28;20519;-78
2021/12/27 13:35:07;;;;;;;127.30;18.20;;;;;;;;;;5054306;28;20036;-77
2021/12/27 13:37:37;;;;;;;114.50;14.27;;;2.90;99.90;;;;;;5050785;28;20048;-78
2021/12/27 13:40:14;;;;;;;88.07;10.55;;;;;;;;;;5057891;28;20077;-79
2021/12/27 13:42:40;;;;;;;95.28;11.63;;;;;;;;;;5037152;28;20040;-78
2021/12/27 13:45:10;;;;;;;116.53;14.00;;;;;;;;;;5057062;28;20044;-78
2021/12/27 13:47:36;;;;;;;96.30;11.48;;;;;;;;;;5057455;28;20503;-78
2021/12/27 13:50:04;;;;;;;69.72;10.02;;;2.90;99.90;;;;;;5045155;28;20051;-77
2021/12/27 13:52:42;;;;;;;25.67;7.18;;;;;;;;;;5035643;28;20041;-78
2021/12/27 13:55:08;;;;;;;61.22;9.27;;;;;;;;;;5058737;28;20083;-78
2021/12/27 13:57:40;;;;;;;94.32;12.25;;;;;;;;;;5057913;28;20569;-78
2021/12/27 14:00:07;;;;;;;228.57;19.10;;;;;;;;;;5061312;28;20131;-78
2021/12/27 14:02:38;;;;;;;90.22;11.35;;;;;;;;;;5051216;28;20115;-78